createdAt,value
2022-12-14T00:00:49.846Z,957.71
2022-12-14T00:01:49.855Z,957.71
2022-12-14T00:02:49.886Z,957.69
2022-12-14T00:03:49.851Z,957.72
2022-12-14T00:04:49.775Z,957.69
2022-12-14T00:05:49.775Z,957.63
2022-12-14T00:06:49.774Z,957.63
2022-12-14T00:07:49.728Z,957.58
2022-12-14T00:08:49.730Z,957.55
2022-12-14T00:09:49.726Z,957.56
2022-12-14T00:10:49.737Z,957.60
2022-12-14T00:11:49.725Z,957.58
2022-12-14T00:12:49.687Z,957.67
2022-12-14T00:13:49.676Z,957.61
2022-12-14T00:14:49.670Z,957.61
2022-12-14T00:15:49.682Z,957.64
2022-12-14T00:16:49.679Z,957.65
2022-12-14T00:17:49.625Z,957.67
2022-12-14T00:18:49.620Z,957.68
2022-12-14T00:19:49.626Z,957.69
2022-12-14T00:20:49.609Z,957.65
2022-12-14T00:21:49.634Z,957.68
2022-12-14T00:22:49.608Z,957.66
2022-12-14T00:23:49.577Z,957.65
2022-12-14T00:24:49.564Z,957.66
2022-12-14T00:25:49.569Z,957.65
2022-12-14T00:26:49.571Z,957.66
2022-12-14T00:27:49.531Z,957.65
2022-12-14T00:28:49.594Z,957.66
2022-12-14T00:29:49.548Z,957.68
2022-12-14T00:30:52.786Z,957.64
2022-12-14T00:31:49.588Z,957.69
2022-12-14T00:32:49.512Z,957.64
2022-12-14T00:33:49.487Z,957.62
2022-12-14T00:34:49.582Z,957.73
2022-12-14T00:35:49.466Z,957.71
2022-12-14T00:36:49.470Z,957.65
2022-12-14T00:37:49.447Z,957.61
2022-12-14T00:38:49.435Z,957.61
2022-12-14T00:39:49.431Z,957.54
2022-12-14T00:40:49.446Z,957.55
2022-12-14T00:41:49.413Z,957.54
2022-12-14T00:42:49.416Z,957.61
2022-12-14T00:43:49.979Z,957.59
2022-12-14T00:44:49.383Z,957.59
2022-12-14T00:45:49.382Z,957.57
2022-12-14T00:46:49.461Z,957.64
2022-12-14T00:47:49.349Z,957.54
2022-12-14T00:48:49.351Z,957.57
2022-12-14T00:49:49.350Z,957.56
2022-12-14T00:50:49.336Z,957.55
2022-12-14T00:51:49.341Z,957.51
2022-12-14T00:52:49.313Z,957.54
2022-12-14T00:53:49.297Z,957.58
2022-12-14T00:54:49.286Z,957.59
2022-12-14T00:55:49.663Z,957.51
2022-12-14T00:56:49.280Z,957.47
2022-12-14T00:57:49.271Z,957.58
2022-12-14T00:58:49.236Z,957.47
2022-12-14T00:59:49.252Z,957.55
2022-12-14T01:00:49.230Z,957.53
2022-12-14T01:01:49.366Z,957.45
2022-12-14T01:02:49.281Z,957.49
2022-12-14T01:03:49.265Z,957.49
2022-12-14T01:04:49.191Z,957.44
2022-12-14T01:05:49.597Z,957.37
2022-12-14T01:06:49.208Z,957.35
2022-12-14T01:07:49.168Z,957.35
2022-12-14T01:08:49.149Z,957.38
2022-12-14T01:09:49.142Z,957.42
2022-12-14T01:10:49.118Z,957.43
2022-12-14T01:11:49.152Z,957.41
2022-12-14T01:12:49.121Z,957.43
2022-12-14T01:13:49.854Z,957.39
2022-12-14T01:14:49.098Z,957.40
2022-12-14T01:15:49.121Z,957.38
2022-12-14T01:16:49.112Z,957.38
2022-12-14T01:17:49.082Z,957.38
2022-12-14T01:18:49.056Z,957.39
2022-12-14T01:19:49.328Z,957.34
2022-12-14T01:20:49.022Z,957.33
2022-12-14T01:21:49.041Z,957.40
2022-12-14T01:22:49.016Z,957.35
2022-12-14T01:23:48.998Z,957.38
2022-12-14T01:24:48.991Z,957.37
2022-12-14T01:25:49.039Z,957.40
2022-12-14T01:26:49.013Z,957.37
2022-12-14T01:27:48.992Z,957.39
2022-12-14T01:28:48.968Z,957.36
2022-12-14T01:29:49.026Z,957.34
2022-12-14T01:30:49.018Z,957.37
2022-12-14T01:31:49.011Z,957.34
2022-12-14T01:32:49.000Z,957.30
2022-12-14T01:33:48.946Z,957.39
2022-12-14T01:34:48.903Z,957.37
2022-12-14T01:35:49.049Z,957.30
2022-12-14T01:36:48.934Z,957.30
2022-12-14T01:37:49.374Z,957.34
2022-12-14T01:38:48.878Z,957.33
2022-12-14T01:39:48.927Z,957.31
2022-12-14T01:40:49.016Z,957.35
2022-12-14T01:41:48.850Z,957.40
2022-12-14T01:42:48.908Z,957.37
2022-12-14T01:43:48.999Z,957.33
2022-12-14T01:44:48.932Z,957.30
2022-12-14T01:45:48.875Z,957.33
2022-12-14T01:46:48.882Z,957.25
2022-12-14T01:47:48.805Z,957.24
2022-12-14T01:48:48.982Z,957.17
2022-12-14T01:49:49.446Z,957.16
2022-12-14T01:50:48.747Z,957.23
2022-12-14T01:51:48.933Z,957.22
2022-12-14T01:52:48.751Z,957.19
2022-12-14T01:53:48.709Z,957.16
2022-12-14T01:54:49.130Z,957.18
2022-12-14T01:55:49.334Z,957.15
2022-12-14T01:56:48.744Z,957.18
2022-12-14T01:57:48.678Z,957.13
2022-12-14T01:58:48.741Z,957.12
2022-12-14T01:59:48.687Z,957.16
2022-12-14T02:00:48.646Z,957.17
2022-12-14T02:01:48.761Z,957.11
2022-12-14T02:02:48.700Z,957.13
2022-12-14T02:03:48.680Z,957.13
2022-12-14T02:04:48.611Z,957.11
2022-12-14T02:05:48.902Z,957.10
2022-12-14T02:06:48.592Z,957.13
2022-12-14T02:07:48.991Z,957.12
2022-12-14T02:08:48.575Z,957.09
2022-12-14T02:09:48.892Z,957.10
2022-12-14T02:10:48.541Z,957.17
2022-12-14T02:11:49.443Z,957.11
2022-12-14T02:12:48.535Z,957.22
2022-12-14T02:13:48.751Z,957.21
2022-12-14T02:14:48.546Z,957.16
2022-12-14T02:15:48.533Z,957.15
2022-12-14T02:16:48.493Z,957.18
2022-12-14T02:17:48.589Z,957.17
2022-12-14T02:18:48.460Z,957.15
2022-12-14T02:19:48.450Z,957.11
2022-12-14T02:20:48.455Z,957.06
2022-12-14T02:21:48.416Z,957.12
2022-12-14T02:22:48.430Z,957.11
2022-12-14T02:23:48.411Z,957.09
2022-12-14T02:24:48.419Z,957.12
2022-12-14T02:25:49.498Z,957.06
2022-12-14T02:26:48.380Z,957.13
2022-12-14T02:27:48.370Z,957.16
2022-12-14T02:28:48.393Z,957.13
2022-12-14T02:29:48.359Z,957.15
2022-12-14T02:30:48.331Z,957.18
2022-12-14T02:31:49.031Z,957.07
2022-12-14T02:32:48.306Z,957.01
2022-12-14T02:33:48.323Z,957.01
2022-12-14T02:34:48.371Z,956.99
2022-12-14T02:35:48.277Z,957.09
2022-12-14T02:36:48.280Z,957.06
2022-12-14T02:37:49.128Z,957.13
2022-12-14T02:38:48.248Z,957.10
2022-12-14T02:39:48.510Z,957.09
2022-12-14T02:40:48.257Z,957.05
2022-12-14T02:41:48.218Z,957.02
2022-12-14T02:42:48.236Z,957.02
2022-12-14T02:43:48.193Z,957.05
2022-12-14T02:44:48.258Z,957.01
2022-12-14T02:45:48.330Z,957.05
2022-12-14T02:46:50.523Z,957.12
2022-12-14T02:47:48.165Z,957.13
2022-12-14T02:48:48.175Z,957.05
2022-12-14T02:49:49.873Z,957.04
2022-12-14T02:50:48.188Z,957.04
2022-12-14T02:51:48.121Z,957.02
2022-12-14T02:52:48.104Z,957.06
2022-12-14T02:53:48.096Z,957.06
2022-12-14T02:54:48.099Z,957.12
2022-12-14T02:55:48.078Z,957.19
2022-12-14T02:56:48.092Z,957.14
2022-12-14T02:57:48.058Z,957.14
2022-12-14T02:58:48.051Z,957.10
2022-12-14T02:59:48.050Z,957.08
2022-12-14T03:00:48.079Z,957.13
2022-12-14T03:01:48.243Z,957.13
2022-12-14T03:02:48.192Z,957.14
2022-12-14T03:03:48.002Z,957.10
2022-12-14T03:04:47.990Z,957.13
2022-12-14T03:05:48.001Z,957.11
2022-12-14T03:06:48.019Z,957.08
2022-12-14T03:07:48.850Z,957.13
2022-12-14T03:08:47.942Z,957.12
2022-12-14T03:09:48.040Z,957.09
2022-12-14T03:10:47.926Z,957.13
2022-12-14T03:11:47.947Z,957.21
2022-12-14T03:12:47.909Z,957.11
2022-12-14T03:13:49.181Z,957.08
2022-12-14T03:14:47.905Z,957.15
2022-12-14T03:15:47.873Z,957.08
2022-12-14T03:16:47.882Z,957.07
2022-12-14T03:17:49.221Z,957.05
2022-12-14T03:18:47.848Z,957.08
2022-12-14T03:19:48.956Z,957.05
2022-12-14T03:20:47.843Z,957.03
2022-12-14T03:21:47.823Z,956.99
2022-12-14T03:22:47.916Z,957.04
2022-12-14T03:23:47.800Z,956.96
2022-12-14T03:24:47.778Z,956.97
2022-12-14T03:25:48.547Z,956.98
2022-12-14T03:26:47.914Z,956.96
2022-12-14T03:27:47.748Z,956.98
2022-12-14T03:28:47.748Z,956.97
2022-12-14T03:29:47.736Z,956.97
2022-12-14T03:31:03.056Z,957.03
2022-12-14T03:31:48.969Z,956.95
2022-12-14T03:32:47.720Z,956.91
2022-12-14T03:33:48.364Z,956.90
2022-12-14T03:34:47.686Z,957.03
2022-12-14T03:35:47.679Z,956.89
2022-12-14T03:36:47.673Z,956.99
2022-12-14T03:37:52.806Z,956.95
2022-12-14T03:38:47.645Z,956.93
2022-12-14T03:39:47.626Z,956.92
2022-12-14T03:40:47.630Z,956.93
2022-12-14T03:41:49.049Z,956.97
2022-12-14T03:42:49.604Z,957.01
2022-12-14T03:43:49.829Z,957.01
2022-12-14T03:44:49.320Z,956.96
2022-12-14T03:45:47.804Z,956.91
2022-12-14T03:46:47.573Z,956.88
2022-12-14T03:47:47.548Z,956.88
2022-12-14T03:48:47.544Z,956.90
2022-12-14T03:49:47.527Z,956.91
2022-12-14T03:50:47.543Z,956.91
2022-12-14T03:51:47.521Z,956.84
2022-12-14T03:52:47.500Z,956.86
2022-12-14T03:53:47.490Z,956.84
2022-12-14T03:54:47.472Z,956.83
2022-12-14T03:55:48.838Z,956.84
2022-12-14T03:56:52.806Z,956.82
2022-12-14T03:57:47.581Z,956.81
2022-12-14T03:58:50.046Z,956.84
2022-12-14T03:59:47.485Z,956.78
2022-12-14T04:00:47.486Z,956.74
2022-12-14T04:01:49.295Z,956.75
2022-12-14T04:02:47.640Z,956.73
2022-12-14T04:03:47.393Z,956.77
2022-12-14T04:04:47.372Z,956.76
2022-12-14T04:05:49.254Z,956.77
2022-12-14T04:06:47.378Z,956.72
2022-12-14T04:07:47.385Z,956.80
2022-12-14T04:08:47.729Z,956.81
2022-12-14T04:09:47.328Z,956.81
2022-12-14T04:10:47.305Z,956.77
2022-12-14T04:11:47.779Z,956.79
2022-12-14T04:12:51.227Z,956.73
2022-12-14T04:13:49.287Z,956.70
2022-12-14T04:14:47.259Z,956.71
2022-12-14T04:15:47.269Z,956.73
2022-12-14T04:16:47.360Z,956.71
2022-12-14T04:17:47.236Z,956.68
2022-12-14T04:18:47.227Z,956.73
2022-12-14T04:19:48.940Z,956.71
2022-12-14T04:20:47.197Z,956.65
2022-12-14T04:21:47.207Z,956.65
2022-12-14T04:22:47.880Z,956.63
2022-12-14T04:23:47.159Z,956.70
2022-12-14T04:24:47.186Z,956.64
2022-12-14T04:25:47.142Z,956.64
2022-12-14T04:26:47.141Z,956.64
2022-12-14T04:27:47.163Z,956.65
2022-12-14T04:28:47.118Z,956.64
2022-12-14T04:29:47.545Z,956.69
2022-12-14T04:30:47.110Z,956.60
2022-12-14T04:31:47.253Z,956.61
2022-12-14T04:32:47.185Z,956.62
2022-12-14T04:33:47.074Z,956.60
2022-12-14T04:34:47.065Z,956.52
2022-12-14T04:35:47.032Z,956.56
2022-12-14T04:36:47.055Z,956.63
2022-12-14T04:37:48.795Z,956.62
2022-12-14T04:38:47.017Z,956.67
2022-12-14T04:39:46.997Z,956.58
2022-12-14T04:40:47.028Z,956.55
2022-12-14T04:41:46.979Z,956.60
2022-12-14T04:42:47.012Z,956.61
2022-12-14T04:43:49.033Z,956.53
2022-12-14T04:44:46.968Z,956.61
2022-12-14T04:45:47.043Z,956.56
2022-12-14T04:46:46.940Z,956.62
2022-12-14T04:47:46.942Z,956.58
2022-12-14T04:48:47.067Z,956.52
2022-12-14T04:49:46.902Z,956.51
2022-12-14T04:50:46.931Z,956.52
2022-12-14T04:51:46.965Z,956.52
2022-12-14T04:52:46.889Z,956.49
2022-12-14T04:53:46.869Z,956.48
2022-12-14T04:54:46.852Z,956.54
2022-12-14T04:55:46.857Z,956.47
2022-12-14T04:56:46.828Z,956.54
2022-12-14T04:57:46.817Z,956.50
2022-12-14T04:58:46.804Z,956.51
2022-12-14T04:59:46.806Z,956.49
2022-12-14T05:00:46.868Z,956.47
2022-12-14T05:01:49.071Z,956.47
2022-12-14T05:02:46.909Z,956.59
2022-12-14T05:03:46.750Z,956.52
2022-12-14T05:04:46.741Z,956.49
2022-12-14T05:05:46.743Z,956.52
2022-12-14T05:06:46.735Z,956.51
2022-12-14T05:07:46.803Z,956.46
2022-12-14T05:08:46.734Z,956.50
2022-12-14T05:09:46.703Z,956.48
2022-12-14T05:10:46.684Z,956.49
2022-12-14T05:11:54.703Z,956.39
2022-12-14T05:12:46.674Z,956.40
2022-12-14T05:13:49.019Z,956.35
2022-12-14T05:14:46.649Z,956.39
2022-12-14T05:15:46.633Z,956.32
2022-12-14T05:16:49.046Z,956.32
2022-12-14T05:17:46.677Z,956.29
2022-12-14T05:18:46.587Z,956.38
2022-12-14T05:19:48.940Z,956.36
2022-12-14T05:20:46.590Z,956.44
2022-12-14T05:21:46.569Z,956.39
2022-12-14T05:22:46.576Z,956.43
2022-12-14T05:23:46.566Z,956.37
2022-12-14T05:24:46.543Z,956.36
2022-12-14T05:25:49.097Z,956.46
2022-12-14T05:26:46.515Z,956.38
2022-12-14T05:27:46.524Z,956.44
2022-12-14T05:28:50.350Z,956.39
2022-12-14T05:29:46.485Z,956.38
2022-12-14T05:30:49.009Z,956.37
2022-12-14T05:31:49.141Z,956.31
2022-12-14T05:32:46.460Z,956.30
2022-12-14T05:33:46.458Z,956.32
2022-12-14T05:34:46.451Z,956.38
2022-12-14T05:35:46.424Z,956.33
2022-12-14T05:36:46.457Z,956.37
2022-12-14T05:37:46.424Z,956.39
2022-12-14T05:38:46.376Z,956.34
2022-12-14T05:39:46.398Z,956.33
2022-12-14T05:40:46.372Z,956.36
2022-12-14T05:41:46.395Z,956.32
2022-12-14T05:42:49.802Z,956.34
2022-12-14T05:43:46.356Z,956.34
2022-12-14T05:44:46.338Z,956.33
2022-12-14T05:45:46.419Z,956.28
2022-12-14T05:46:46.319Z,956.32
2022-12-14T05:47:46.343Z,956.27
2022-12-14T05:48:49.410Z,956.29
2022-12-14T05:49:46.283Z,956.32
2022-12-14T05:50:46.307Z,956.28
2022-12-14T05:51:46.276Z,956.26
2022-12-14T05:52:46.252Z,956.21
2022-12-14T05:53:46.273Z,956.26
2022-12-14T05:54:46.288Z,956.26
2022-12-14T05:55:46.248Z,956.23
2022-12-14T05:56:46.208Z,956.25
2022-12-14T05:57:46.207Z,956.28
2022-12-14T05:58:46.219Z,956.32
2022-12-14T05:59:46.200Z,956.28
2022-12-14T06:00:46.195Z,956.26
2022-12-14T06:01:48.873Z,956.19
2022-12-14T06:02:46.249Z,956.13
2022-12-14T06:03:46.146Z,956.20
2022-12-14T06:04:46.198Z,956.26
2022-12-14T06:05:46.117Z,956.24
2022-12-14T06:06:46.115Z,956.29
2022-12-14T06:07:46.111Z,956.38
2022-12-14T06:08:46.087Z,956.31
2022-12-14T06:09:46.119Z,956.27
2022-12-14T06:10:46.068Z,956.30
2022-12-14T06:11:46.075Z,956.34
2022-12-14T06:12:46.119Z,956.32
2022-12-14T06:13:46.051Z,956.37
2022-12-14T06:14:46.065Z,956.39
2022-12-14T06:15:46.033Z,956.37
2022-12-14T06:16:46.009Z,956.40
2022-12-14T06:17:46.015Z,956.37
2022-12-14T06:18:45.981Z,956.36
2022-12-14T06:19:49.894Z,956.25
2022-12-14T06:20:45.973Z,956.22
2022-12-14T06:21:45.952Z,956.28
2022-12-14T06:22:47.898Z,956.23
2022-12-14T06:23:45.952Z,956.37
2022-12-14T06:24:45.979Z,956.29
2022-12-14T06:25:45.907Z,956.27
2022-12-14T06:26:45.911Z,956.29
2022-12-14T06:27:45.922Z,956.21
2022-12-14T06:28:45.887Z,956.22
2022-12-14T06:29:45.875Z,956.21
2022-12-14T06:30:45.911Z,956.26
2022-12-14T06:31:45.853Z,956.25
2022-12-14T06:32:45.851Z,956.24
2022-12-14T06:33:45.885Z,956.27
2022-12-14T06:34:45.813Z,956.23
2022-12-14T06:35:45.831Z,956.22
2022-12-14T06:36:45.796Z,956.23
2022-12-14T06:37:45.788Z,956.24
2022-12-14T06:38:45.789Z,956.22
2022-12-14T06:39:49.713Z,956.25
2022-12-14T06:40:45.768Z,956.29
2022-12-14T06:41:45.782Z,956.25
2022-12-14T06:42:45.750Z,956.26
2022-12-14T06:43:45.734Z,956.32
2022-12-14T06:44:45.728Z,956.29
2022-12-14T06:45:45.723Z,956.26
2022-12-14T06:46:45.757Z,956.25
2022-12-14T06:47:45.679Z,956.33
2022-12-14T06:48:45.714Z,956.33
2022-12-14T06:49:45.685Z,956.33
2022-12-14T06:50:45.663Z,956.30
2022-12-14T06:51:45.691Z,956.35
2022-12-14T06:52:45.661Z,956.35
2022-12-14T06:53:45.634Z,956.36
2022-12-14T06:54:45.640Z,956.40
2022-12-14T06:55:45.621Z,956.37
2022-12-14T06:56:45.599Z,956.31
2022-12-14T06:57:45.600Z,956.34
2022-12-14T06:58:45.585Z,956.32
2022-12-14T06:59:45.594Z,956.34
2022-12-14T07:00:45.591Z,956.33
2022-12-14T07:01:45.672Z,956.35
2022-12-14T07:02:45.725Z,956.33
2022-12-14T07:03:45.666Z,956.39
2022-12-14T07:04:45.542Z,956.37
2022-12-14T07:05:48.990Z,956.37
2022-12-14T07:06:45.507Z,956.37
2022-12-14T07:07:45.501Z,956.43
2022-12-14T07:08:45.489Z,956.41
2022-12-14T07:09:45.480Z,956.44
2022-12-14T07:10:45.469Z,956.43
2022-12-14T07:11:45.465Z,956.46
2022-12-14T07:12:45.442Z,956.46
2022-12-14T07:13:45.420Z,956.48
2022-12-14T07:14:45.417Z,956.38
2022-12-14T07:15:45.444Z,956.44
2022-12-14T07:16:48.796Z,956.45
2022-12-14T07:17:45.396Z,956.43
2022-12-14T07:18:45.380Z,956.46
2022-12-14T07:19:45.374Z,956.41
2022-12-14T07:20:45.354Z,956.43
2022-12-14T07:21:45.388Z,956.39
2022-12-14T07:22:49.330Z,956.43
2022-12-14T07:23:45.315Z,956.47
2022-12-14T07:24:45.315Z,956.40
2022-12-14T07:25:45.328Z,956.42
2022-12-14T07:26:45.294Z,956.53
2022-12-14T07:27:45.294Z,956.49
2022-12-14T07:28:45.278Z,956.49
2022-12-14T07:29:45.259Z,956.54
2022-12-14T07:30:45.313Z,956.51
2022-12-14T07:31:49.363Z,956.56
2022-12-14T07:32:45.238Z,956.56
2022-12-14T07:33:45.237Z,956.59
2022-12-14T07:34:45.207Z,956.55
2022-12-14T07:35:45.203Z,956.58
2022-12-14T07:36:45.186Z,956.55
2022-12-14T07:37:49.193Z,956.54
2022-12-14T07:38:45.213Z,956.54
2022-12-14T07:39:45.218Z,956.53
2022-12-14T07:40:45.156Z,956.51
2022-12-14T07:41:45.138Z,956.52
2022-12-14T07:42:45.156Z,956.52
2022-12-14T07:43:45.133Z,956.49
2022-12-14T07:44:45.136Z,956.53
2022-12-14T07:45:45.094Z,956.56
2022-12-14T07:46:45.156Z,956.61
2022-12-14T07:47:45.078Z,956.56
2022-12-14T07:48:45.084Z,956.62
2022-12-14T07:49:45.131Z,956.65
2022-12-14T07:50:45.059Z,956.59
2022-12-14T07:51:45.036Z,956.67
2022-12-14T07:52:45.103Z,956.62
2022-12-14T07:53:45.018Z,956.64
2022-12-14T07:54:45.010Z,956.68
2022-12-14T07:55:45.011Z,956.62
2022-12-14T07:56:44.978Z,956.62
2022-12-14T07:57:44.968Z,956.60
2022-12-14T07:58:44.979Z,956.62
2022-12-14T07:59:44.951Z,956.62
2022-12-14T08:00:44.958Z,956.64
2022-12-14T08:01:45.125Z,956.69
2022-12-14T08:02:44.992Z,956.68
2022-12-14T08:03:44.992Z,956.66
2022-12-14T08:04:44.936Z,956.64
2022-12-14T08:05:44.922Z,956.69
2022-12-14T08:06:44.901Z,956.68
2022-12-14T08:07:44.889Z,956.71
2022-12-14T08:08:44.907Z,956.72
2022-12-14T08:09:44.898Z,956.68
2022-12-14T08:10:44.850Z,956.67
2022-12-14T08:11:44.837Z,956.72
2022-12-14T08:12:44.823Z,956.66
2022-12-14T08:13:44.895Z,956.73
2022-12-14T08:14:44.868Z,956.71
2022-12-14T08:15:44.848Z,956.72
2022-12-14T08:16:44.787Z,956.74
2022-12-14T08:17:44.778Z,956.76
2022-12-14T08:18:44.770Z,956.82
2022-12-14T08:19:44.750Z,956.79
2022-12-14T08:20:48.639Z,956.83
2022-12-14T08:21:44.733Z,956.76
2022-12-14T08:22:44.742Z,956.72
2022-12-14T08:23:44.745Z,956.73
2022-12-14T08:24:44.695Z,956.78
2022-12-14T08:25:44.711Z,956.77
2022-12-14T08:26:47.295Z,956.73
2022-12-14T08:27:44.676Z,956.76
2022-12-14T08:28:44.703Z,956.75
2022-12-14T08:29:44.661Z,956.77
2022-12-14T08:30:44.632Z,956.77
2022-12-14T08:31:44.734Z,956.81
2022-12-14T08:32:44.621Z,956.84
2022-12-14T08:33:44.602Z,956.80
2022-12-14T08:34:44.591Z,956.80
2022-12-14T08:35:44.595Z,956.80
2022-12-14T08:36:44.606Z,956.80
2022-12-14T08:37:47.635Z,956.83
2022-12-14T08:38:44.563Z,956.80
2022-12-14T08:39:44.532Z,956.84
2022-12-14T08:40:44.539Z,956.92
2022-12-14T08:41:44.532Z,956.83
2022-12-14T08:42:44.637Z,956.87
2022-12-14T08:43:44.522Z,956.91
2022-12-14T08:44:44.509Z,956.89
2022-12-14T08:45:44.498Z,956.96
2022-12-14T08:46:44.492Z,956.85
2022-12-14T08:47:44.462Z,956.95
2022-12-14T08:48:44.493Z,956.95
2022-12-14T08:49:44.430Z,956.96
2022-12-14T08:50:44.457Z,956.96
2022-12-14T08:51:44.436Z,956.99
2022-12-14T08:52:44.415Z,956.93
2022-12-14T08:53:44.423Z,956.90
2022-12-14T08:54:44.400Z,956.91
2022-12-14T08:55:44.388Z,956.94
2022-12-14T08:56:44.366Z,956.92
2022-12-14T08:57:44.363Z,956.92
2022-12-14T08:58:44.383Z,956.94
2022-12-14T09:00:01.649Z,956.87
2022-12-14T09:00:44.407Z,956.89
2022-12-14T09:01:44.601Z,956.92
2022-12-14T09:02:44.685Z,956.96
2022-12-14T09:03:44.328Z,956.94
2022-12-14T09:04:44.288Z,956.88
2022-12-14T09:05:44.275Z,956.94
2022-12-14T09:06:44.282Z,956.90
2022-12-14T09:07:44.256Z,956.91
2022-12-14T09:08:44.241Z,956.93
2022-12-14T09:09:44.307Z,956.92
2022-12-14T09:10:44.219Z,956.87
2022-12-14T09:11:44.213Z,956.94
2022-12-14T09:12:44.204Z,956.94
2022-12-14T09:13:44.186Z,956.90
2022-12-14T09:14:44.177Z,956.93
2022-12-14T09:15:44.190Z,956.94
2022-12-14T09:16:44.269Z,956.93
2022-12-14T09:17:44.180Z,956.99
2022-12-14T09:18:44.137Z,956.97
2022-12-14T09:19:44.135Z,956.93
2022-12-14T09:20:44.121Z,956.92
2022-12-14T09:21:44.153Z,956.98
2022-12-14T09:22:44.122Z,956.95
2022-12-14T09:23:44.090Z,956.93
2022-12-14T09:24:44.075Z,956.89
2022-12-14T09:25:44.110Z,956.91
2022-12-14T09:26:44.086Z,956.89
2022-12-14T09:27:44.070Z,956.85
2022-12-14T09:28:44.036Z,956.92
2022-12-14T09:29:44.013Z,956.90
2022-12-14T09:30:44.014Z,956.90
2022-12-14T09:31:44.055Z,956.98
2022-12-14T09:32:44.013Z,956.94
2022-12-14T09:33:44.031Z,956.88
2022-12-14T09:34:43.961Z,956.87
2022-12-14T09:35:43.972Z,956.84
2022-12-14T09:36:43.969Z,956.83
2022-12-14T09:37:43.983Z,956.83
2022-12-14T09:38:50.267Z,956.85
2022-12-14T09:39:43.942Z,956.86
2022-12-14T09:40:43.946Z,956.90
2022-12-14T09:41:43.915Z,956.89
2022-12-14T09:42:43.956Z,957.03
2022-12-14T09:43:43.886Z,957.04
2022-12-14T09:44:43.880Z,957.10
2022-12-14T09:45:43.910Z,957.09
2022-12-14T09:46:43.854Z,957.16
2022-12-14T09:47:43.854Z,957.16
2022-12-14T09:48:43.865Z,957.21
2022-12-14T09:49:43.822Z,957.23
2022-12-14T09:50:43.798Z,957.22
2022-12-14T09:51:43.805Z,957.24
2022-12-14T09:52:43.802Z,957.21
2022-12-14T09:53:43.866Z,957.20
2022-12-14T09:54:43.786Z,957.15
2022-12-14T09:55:43.772Z,957.11
2022-12-14T09:56:43.769Z,957.16
2022-12-14T09:57:43.749Z,957.19
2022-12-14T09:58:43.735Z,957.13
2022-12-14T09:59:43.746Z,957.15
2022-12-14T10:00:46.902Z,957.16
2022-12-14T10:01:46.958Z,957.16
2022-12-14T10:02:43.921Z,957.19
2022-12-14T10:03:43.897Z,957.18
2022-12-14T10:04:47.683Z,957.16
2022-12-14T10:05:43.643Z,957.09
2022-12-14T10:06:43.630Z,957.03
2022-12-14T10:07:43.655Z,957.15
2022-12-14T10:08:43.634Z,957.12
2022-12-14T10:09:43.604Z,957.07
2022-12-14T10:10:43.615Z,957.09
2022-12-14T10:11:43.612Z,957.05
2022-12-14T10:12:43.582Z,957.00
2022-12-14T10:13:43.563Z,957.05
2022-12-14T10:14:44.597Z,957.02
2022-12-14T10:15:43.560Z,956.94
2022-12-14T10:16:47.131Z,956.92
2022-12-14T10:17:43.575Z,956.89
2022-12-14T10:18:59.477Z,956.92
2022-12-14T10:19:43.521Z,956.94
2022-12-14T10:20:43.494Z,956.89
2022-12-14T10:21:43.506Z,956.92
2022-12-14T10:22:43.467Z,956.95
2022-12-14T10:23:43.505Z,956.94
2022-12-14T10:24:43.453Z,956.91
2022-12-14T10:25:43.456Z,956.93
2022-12-14T10:26:43.435Z,956.93
2022-12-14T10:28:13.325Z,956.93
2022-12-14T10:28:43.477Z,956.92
2022-12-14T10:29:43.424Z,956.93
2022-12-14T10:30:43.394Z,956.92
2022-12-14T10:31:43.480Z,956.96
2022-12-14T10:32:43.379Z,956.94
2022-12-14T10:33:43.362Z,956.91
2022-12-14T10:34:43.375Z,956.95
2022-12-14T10:35:43.336Z,956.90
2022-12-14T10:36:43.321Z,956.90
2022-12-14T10:37:43.370Z,956.84
2022-12-14T10:38:43.340Z,956.88
2022-12-14T10:39:43.293Z,956.99
2022-12-14T10:40:43.305Z,956.94
2022-12-14T10:41:43.289Z,956.95
2022-12-14T10:42:43.322Z,956.94
2022-12-14T10:43:43.297Z,956.92
2022-12-14T10:44:43.279Z,956.87
2022-12-14T10:45:43.255Z,956.89
2022-12-14T10:46:43.247Z,956.83
2022-12-14T10:47:43.220Z,956.83
2022-12-14T10:48:44.145Z,956.83
2022-12-14T10:49:43.264Z,956.83
2022-12-14T10:50:43.215Z,956.82
2022-12-14T10:51:43.183Z,956.83
2022-12-14T10:52:43.217Z,956.80
2022-12-14T10:53:43.141Z,956.74
2022-12-14T10:54:43.148Z,956.83
2022-12-14T10:55:43.443Z,956.79
2022-12-14T10:56:43.276Z,956.82
2022-12-14T10:57:43.136Z,956.75
2022-12-14T10:58:43.113Z,956.81
2022-12-14T11:00:01.656Z,956.77
2022-12-14T11:00:43.088Z,956.75
2022-12-14T11:01:43.280Z,956.75
2022-12-14T11:02:43.329Z,956.74
2022-12-14T11:03:43.164Z,956.70
2022-12-14T11:04:43.086Z,956.71
2022-12-14T11:05:43.055Z,956.64
2022-12-14T11:06:43.023Z,956.76
2022-12-14T11:07:43.007Z,956.77
2022-12-14T11:08:43.011Z,956.77
2022-12-14T11:09:43.006Z,956.70
2022-12-14T11:10:43.008Z,956.71
2022-12-14T11:11:43.023Z,956.71
2022-12-14T11:12:42.965Z,956.76
2022-12-14T11:13:42.964Z,956.70
2022-12-14T11:14:42.944Z,956.69
2022-12-14T11:15:42.948Z,956.75
2022-12-14T11:16:43.122Z,956.73
2022-12-14T11:17:43.164Z,956.65
2022-12-14T11:18:42.903Z,956.65
2022-12-14T11:19:42.873Z,956.70
2022-12-14T11:20:42.912Z,956.70
2022-12-14T11:21:42.868Z,956.80
2022-12-14T11:22:42.857Z,956.79
2022-12-14T11:23:42.856Z,956.78
2022-12-14T11:24:42.850Z,956.80
2022-12-14T11:25:42.852Z,956.70
2022-12-14T11:26:42.827Z,956.80
2022-12-14T11:27:42.817Z,956.81
2022-12-14T11:28:43.202Z,956.78
2022-12-14T11:29:42.797Z,956.74
2022-12-14T11:30:42.862Z,956.77
2022-12-14T11:31:42.779Z,956.85
2022-12-14T11:32:43.614Z,956.84
2022-12-14T11:33:42.766Z,956.83
2022-12-14T11:34:42.736Z,956.84
2022-12-14T11:35:42.729Z,956.84
2022-12-14T11:36:42.756Z,956.79
2022-12-14T11:37:42.709Z,956.78
2022-12-14T11:38:42.704Z,956.83
2022-12-14T11:39:42.730Z,956.84
2022-12-14T11:40:42.677Z,956.81
2022-12-14T11:41:42.675Z,956.79
2022-12-14T11:42:42.650Z,956.82
2022-12-14T11:43:42.658Z,956.86
2022-12-14T11:44:42.664Z,956.86
2022-12-14T11:45:42.618Z,956.83
2022-12-14T11:46:44.691Z,956.85
2022-12-14T11:47:42.623Z,956.89
2022-12-14T11:48:42.598Z,956.84
2022-12-14T11:49:42.602Z,956.92
2022-12-14T11:50:42.586Z,956.85
2022-12-14T11:51:42.565Z,956.90
2022-12-14T11:52:42.568Z,956.89
2022-12-14T11:53:42.556Z,956.81
2022-12-14T11:54:42.562Z,956.83
2022-12-14T11:55:42.544Z,956.83
2022-12-14T11:56:42.508Z,956.82
2022-12-14T11:57:42.500Z,956.87
2022-12-14T11:58:42.614Z,956.80
2022-12-14T11:59:42.486Z,956.85
2022-12-14T12:00:46.747Z,956.78
2022-12-14T12:01:42.537Z,956.80
2022-12-14T12:02:42.517Z,956.81
2022-12-14T12:03:42.557Z,956.86
2022-12-14T12:04:42.428Z,956.78
2022-12-14T12:05:42.438Z,956.74
2022-12-14T12:06:42.414Z,956.75
2022-12-14T12:07:42.417Z,956.75
2022-12-14T12:08:42.396Z,956.74
2022-12-14T12:09:42.400Z,956.77
2022-12-14T12:10:42.407Z,956.85
2022-12-14T12:11:42.365Z,956.82
2022-12-14T12:12:42.379Z,956.80
2022-12-14T12:13:42.361Z,956.82
2022-12-14T12:14:42.345Z,956.81
2022-12-14T12:15:42.334Z,956.91
2022-12-14T12:16:42.348Z,956.87
2022-12-14T12:17:42.307Z,956.83
2022-12-14T12:18:46.256Z,956.84
2022-12-14T12:19:42.281Z,956.81
2022-12-14T12:20:42.285Z,956.84
2022-12-14T12:21:42.252Z,956.85
2022-12-14T12:22:42.273Z,956.88
2022-12-14T12:23:42.268Z,956.90
2022-12-14T12:25:08.205Z,956.82
2022-12-14T12:25:42.221Z,956.90
2022-12-14T12:26:42.307Z,956.82
2022-12-14T12:27:42.209Z,956.83
2022-12-14T12:28:42.211Z,956.80